Time,TemperatureF,DewpointF,PressureIn,WindDirection,WindDirectionDegrees,WindSpeedMPH,WindSpeedGustMPH,Humidity,HourlyPrecipIn,Conditions,Clouds,dailyrainin,SolarRadiationWatts/m^2,SoftwareType,DateUTC
2013-06-06 00:03:00,66.0,60.0,-100.00,ESE,104,1.0,4.0,82,0.00,,,0.00,0.000000,,2013-06-06 10:03:00,
2013-06-06 00:12:00,66.0,60.0,-100.00,ESE,104,1.0,4.0,82,0.00,,,0.00,0.000000,,2013-06-06 10:12:00,
2013-06-06 00:22:00,66.0,60.0,-100.00,ESE,104,1.0,4.0,82,0.00,,,0.00,0.000000,,2013-06-06 10:22:00,
2013-06-06 00:33:00,66.0,60.0,-100.00,ESE,104,1.0,4.0,82,0.00,,,0.00,0.000000,,2013-06-06 10:33:00,
2013-06-06 00:53:00,65.0,60.0,-100.00,ENE,68,3.0,6.0,83,0.00,,,0.00,0.000000,,2013-06-06 10:53:00,
2013-06-06 01:02:00,65.0,60.0,-100.00,ENE,68,3.0,6.0,83,0.00,,,0.00,0.000000,,2013-06-06 11:02:00,
2013-06-06 01:12:00,65.0,60.0,-100.00,ENE,68,3.0,6.0,83,0.00,,,0.00,0.000000,,2013-06-06 11:12:00,
2013-06-06 01:22:00,65.0,60.0,-100.00,ENE,68,3.0,6.0,83,0.00,,,0.00,0.000000,,2013-06-06 11:22:00,
2013-06-06 01:32:00,65.0,60.0,-100.00,ENE,68,3.0,6.0,83,0.00,,,0.00,0.000000,,2013-06-06 11:32:00,
2013-06-06 01:52:00,63.0,59.0,-100.00,ESE,109,1.0,6.0,86,0.00,,,-99.99,0.000000,,2013-06-06 11:52:00,
2013-06-06 02:02:00,63.0,59.0,-100.00,ESE,109,1.0,6.0,86,0.00,,,-99.99,0.000000,,2013-06-06 12:02:00,
2013-06-06 02:12:00,63.0,59.0,-100.00,ESE,109,1.0,6.0,86,0.00,,,-99.99,0.000000,,2013-06-06 12:12:00,
2013-06-06 02:22:00,63.0,59.0,-100.00,ESE,109,1.0,6.0,86,0.00,,,-99.99,0.000000,,2013-06-06 12:22:00,
2013-06-06 02:32:00,63.0,59.0,-100.00,ESE,109,1.0,6.0,86,0.00,,,-99.99,0.000000,,2013-06-06 12:32:00,
2013-06-06 02:53:00,61.0,56.0,-100.00,SE,144,4.0,10.0,84,0.00,,,0.00,0.000000,,2013-06-06 12:53:00,
2013-06-06 03:03:00,61.0,56.0,-100.00,SE,144,4.0,10.0,84,0.00,,,0.00,0.000000,,2013-06-06 13:03:00,
2013-06-06 03:12:00,61.0,56.0,-100.00,SE,144,4.0,10.0,84,0.00,,,0.00,0.000000,,2013-06-06 13:12:00,
2013-06-06 03:22:00,61.0,56.0,-100.00,SE,144,4.0,10.0,84,0.00,,,0.00,0.000000,,2013-06-06 13:22:00,
2013-06-06 03:32:00,61.0,56.0,-100.00,SE,144,4.0,10.0,84,0.00,,,0.00,0.000000,,2013-06-06 13:32:00,
2013-06-06 03:53:00,61.0,55.0,-100.00,SE,146,3.0,7.0,82,0.00,,,0.00,0.000000,,2013-06-06 13:53:00,
2013-06-06 04:03:00,61.0,55.0,-100.00,SE,146,3.0,7.0,82,0.00,,,0.00,0.000000,,2013-06-06 14:03:00,
2013-06-06 04:12:00,61.0,55.0,-100.00,SE,146,3.0,7.0,82,0.00,,,0.00,0.000000,,2013-06-06 14:12:00,
2013-06-06 04:22:00,61.0,55.0,-100.00,SE,146,3.0,7.0,82,0.00,,,0.00,0.000000,,2013-06-06 14:22:00,
2013-06-06 04:32:00,61.0,55.0,-100.00,SE,146,3.0,7.0,82,0.00,,,0.00,0.000000,,2013-06-06 14:32:00,
2013-06-06 05:03:00,60.0,55.0,-100.00,SE,130,3.0,7.0,85,0.00,,,0.00,0.000000,,2013-06-06 15:03:00,
2013-06-06 05:12:00,60.0,55.0,-100.00,SE,130,3.0,7.0,85,0.00,,,0.00,0.000000,,2013-06-06 15:12:00,
2013-06-06 05:22:00,60.0,55.0,-100.00,SE,130,3.0,7.0,85,0.00,,,0.00,0.000000,,2013-06-06 15:22:00,
2013-06-06 05:32:00,60.0,55.0,-100.00,SE,130,3.0,7.0,85,0.00,,,0.00,0.000000,,2013-06-06 15:32:00,
2013-06-06 06:03:00,58.0,54.0,-100.00,SSE,151,3.0,7.0,85,0.00,,,0.00,0.000000,,2013-06-06 16:03:00,
2013-06-06 06:12:00,58.0,54.0,-100.00,SSE,151,3.0,7.0,85,0.00,,,0.00,0.000000,,2013-06-06 16:12:00,
2013-06-06 06:22:00,58.0,54.0,-100.00,SSE,151,3.0,7.0,85,0.00,,,0.00,0.000000,,2013-06-06 16:22:00,
2013-06-06 06:33:00,58.0,54.0,-100.00,SSE,151,3.0,7.0,85,0.00,,,0.00,0.000000,,2013-06-06 16:33:00,
2013-06-06 06:53:00,63.0,58.0,-100.00,SE,143,4.0,7.0,83,0.00,,,0.00,21.000000,,2013-06-06 16:53:00,
2013-06-06 07:03:00,63.0,58.0,-100.00,SE,143,4.0,7.0,83,0.00,,,0.00,21.000000,,2013-06-06 17:03:00,
2013-06-06 07:13:00,63.0,58.0,-100.00,SE,143,4.0,7.0,83,0.00,,,0.00,21.000000,,2013-06-06 17:13:00,
2013-06-06 07:22:00,63.0,58.0,-100.00,SE,143,4.0,7.0,83,0.00,,,0.00,21.000000,,2013-06-06 17:22:00,
2013-06-06 07:32:00,63.0,58.0,-100.00,SE,143,4.0,7.0,83,0.00,,,0.00,21.000000,,2013-06-06 17:32:00,
2013-06-06 08:03:00,71.0,62.0,-100.00,ESE,114,2.0,6.0,72,0.00,,,0.00,240.000000,,2013-06-06 18:03:00,
2013-06-06 08:12:00,71.0,62.0,-100.00,ESE,114,2.0,6.0,72,0.00,,,0.00,240.000000,,2013-06-06 18:12:00,
2013-06-06 08:22:00,71.0,62.0,-100.00,ESE,114,2.0,6.0,72,0.00,,,0.00,240.000000,,2013-06-06 18:22:00,
2013-06-06 08:33:00,71.0,62.0,-100.00,ESE,114,2.0,6.0,72,0.00,,,0.00,240.000000,,2013-06-06 18:33:00,
2013-06-06 09:03:00,73.0,61.0,-100.00,WNW,290,3.0,9.0,65,0.00,,,0.00,528.000000,,2013-06-06 19:03:00,
2013-06-06 09:12:00,73.0,61.0,-100.00,WNW,290,3.0,9.0,65,0.00,,,0.00,528.000000,,2013-06-06 19:12:00,
2013-06-06 09:23:00,73.0,61.0,-100.00,WNW,290,3.0,9.0,65,0.00,,,0.00,528.000000,,2013-06-06 19:23:00,
2013-06-06 09:32:00,73.0,61.0,-100.00,WNW,290,3.0,9.0,65,0.00,,,0.00,528.000000,,2013-06-06 19:32:00,
2013-06-06 09:53:00,76.0,63.0,-100.00,West,270,4.0,11.0,65,0.00,,,0.00,783.000000,,2013-06-06 19:53:00,
2013-06-06 10:03:00,76.0,63.0,-100.00,West,270,4.0,11.0,65,0.00,,,0.00,783.000000,,2013-06-06 20:03:00,
2013-06-06 10:12:00,76.0,63.0,-100.00,West,270,4.0,11.0,65,0.00,,,0.00,783.000000,,2013-06-06 20:12:00,
2013-06-06 10:22:00,76.0,63.0,-100.00,West,270,4.0,11.0,65,0.00,,,0.00,783.000000,,2013-06-06 20:22:00,
2013-06-06 10:32:00,76.0,63.0,-100.00,West,270,4.0,11.0,65,0.00,,,0.00,783.000000,,2013-06-06 20:32:00,
2013-06-06 10:53:00,78.0,61.0,-100.00,NW,325,5.0,13.0,56,0.00,,,0.00,990.000000,,2013-06-06 20:53:00,
2013-06-06 11:03:00,78.0,61.0,-100.00,NW,325,5.0,13.0,56,0.00,,,0.00,990.000000,,2013-06-06 21:03:00,
2013-06-06 11:12:00,78.0,61.0,-100.00,NW,325,5.0,13.0,56,0.00,,,0.00,990.000000,,2013-06-06 21:12:00,
2013-06-06 11:22:00,78.0,61.0,-100.00,NW,325,5.0,13.0,56,0.00,,,0.00,990.000000,,2013-06-06 21:22:00,
2013-06-06 11:33:00,78.0,61.0,-100.00,NW,325,5.0,13.0,56,0.00,,,0.00,990.000000,,2013-06-06 21:33:00,
2013-06-06 11:53:00,77.0,56.0,-100.00,NW,312,7.0,20.0,48,0.00,,,0.00,918.000000,,2013-06-06 21:53:00,
2013-06-06 12:02:00,77.0,56.0,-100.00,NW,312,7.0,20.0,48,0.00,,,0.00,918.000000,,2013-06-06 22:02:00,
2013-06-06 12:13:00,77.0,56.0,-100.00,NW,312,7.0,20.0,48,0.00,,,0.00,918.000000,,2013-06-06 22:13:00,
2013-06-06 12:23:00,77.0,56.0,-100.00,NW,312,7.0,20.0,48,0.00,,,0.00,918.000000,,2013-06-06 22:23:00,
2013-06-06 12:33:00,77.0,56.0,-100.00,NW,312,7.0,20.0,48,0.00,,,0.00,918.000000,,2013-06-06 22:33:00,
2013-06-06 12:53:00,78.0,60.0,-100.00,West,265,8.0,21.0,54,0.00,,,0.00,818.000000,,2013-06-06 22:53:00,
2013-06-06 13:02:00,78.0,60.0,-100.00,West,265,8.0,21.0,54,0.00,,,0.00,818.000000,,2013-06-06 23:02:00,
2013-06-06 13:12:00,78.0,60.0,-100.00,West,265,8.0,21.0,54,0.00,,,0.00,818.000000,,2013-06-06 23:12:00,
2013-06-06 13:22:00,78.0,60.0,-100.00,West,265,8.0,21.0,54,0.00,,,0.00,818.000000,,2013-06-06 23:22:00,
2013-06-06 13:33:00,78.0,60.0,-100.00,West,265,8.0,21.0,54,0.00,,,0.00,818.000000,,2013-06-06 23:33:00,
2013-06-06 13:52:00,75.0,60.0,-100.00,WSW,251,9.0,19.0,59,0.00,,,0.00,559.000000,,2013-06-06 23:52:00,
2013-06-06 14:02:00,75.0,60.0,-100.00,WSW,251,9.0,19.0,59,0.00,,,0.00,559.000000,,2013-06-07 00:02:00,
2013-06-06 14:12:00,75.0,60.0,-100.00,WSW,251,9.0,19.0,59,0.00,,,0.00,559.000000,,2013-06-07 00:12:00,
2013-06-06 14:22:00,75.0,60.0,-100.00,WSW,251,9.0,19.0,59,0.00,,,0.00,559.000000,,2013-06-07 00:22:00,
2013-06-06 14:32:00,75.0,60.0,-100.00,WSW,251,9.0,19.0,59,0.00,,,0.00,559.000000,,2013-06-07 00:32:00,
2013-06-06 14:52:00,72.0,60.0,-100.00,NW,319,9.0,17.0,65,0.00,,,0.00,493.000000,,2013-06-07 00:52:00,
2013-06-06 15:02:00,72.0,60.0,-100.00,NW,319,9.0,17.0,65,0.00,,,0.00,493.000000,,2013-06-07 01:02:00,
2013-06-06 15:12:00,72.0,60.0,-100.00,NW,319,9.0,17.0,65,0.00,,,0.00,493.000000,,2013-06-07 01:12:00,
2013-06-06 15:22:00,72.0,60.0,-100.00,NW,319,9.0,17.0,65,0.00,,,0.00,493.000000,,2013-06-07 01:22:00,
2013-06-06 15:32:00,72.0,60.0,-100.00,NW,319,9.0,17.0,65,0.00,,,0.00,493.000000,,2013-06-07 01:32:00,
2013-06-06 15:52:00,72.0,61.0,-100.00,NNW,336,5.0,14.0,68,0.00,,,0.00,425.000000,,2013-06-07 01:52:00,
2013-06-06 16:02:00,72.0,61.0,-100.00,NNW,336,5.0,14.0,68,0.00,,,0.00,425.000000,,2013-06-07 02:02:00,
2013-06-06 16:12:00,72.0,61.0,-100.00,NNW,336,5.0,14.0,68,0.00,,,0.00,425.000000,,2013-06-07 02:12:00,
2013-06-06 16:22:00,72.0,61.0,-100.00,NNW,336,5.0,14.0,68,0.00,,,0.00,425.000000,,2013-06-07 02:22:00,
2013-06-06 16:32:00,72.0,61.0,-100.00,NNW,336,5.0,14.0,68,0.00,,,0.00,425.000000,,2013-06-07 02:32:00,
2013-06-06 16:52:00,72.0,61.0,-100.00,West,272,7.0,15.0,69,0.00,,,0.00,197.000000,,2013-06-07 02:52:00,
2013-06-06 17:02:00,72.0,61.0,-100.00,West,272,7.0,15.0,69,0.00,,,0.00,197.000000,,2013-06-07 03:02:00,
2013-06-06 17:12:00,72.0,61.0,-100.00,West,272,7.0,15.0,69,0.00,,,0.00,197.000000,,2013-06-07 03:12:00,
2013-06-06 17:22:00,72.0,61.0,-100.00,West,272,7.0,15.0,69,0.00,,,0.00,197.000000,,2013-06-07 03:22:00,
2013-06-06 17:32:00,72.0,61.0,-100.00,West,272,7.0,15.0,69,0.00,,,0.00,197.000000,,2013-06-07 03:32:00,
2013-06-06 17:53:00,70.0,61.0,-100.00,WSW,258,8.0,15.0,72,0.00,,,0.00,95.000000,,2013-06-07 03:53:00,
2013-06-06 18:03:00,70.0,61.0,-100.00,WSW,258,8.0,15.0,72,0.00,,,0.00,95.000000,,2013-06-07 04:03:00,
2013-06-06 18:12:00,70.0,61.0,-100.00,WSW,258,8.0,15.0,72,0.00,,,0.00,95.000000,,2013-06-07 04:12:00,
2013-06-06 18:22:00,70.0,61.0,-100.00,WSW,258,8.0,15.0,72,0.00,,,0.00,95.000000,,2013-06-07 04:22:00,
2013-06-06 18:33:00,70.0,61.0,-100.00,WSW,258,8.0,15.0,72,0.00,,,0.00,95.000000,,2013-06-07 04:33:00,
2013-06-06 18:53:00,69.0,61.0,-100.00,WSW,241,7.0,12.0,77,0.00,,,0.00,31.000000,,2013-06-07 04:53:00,
2013-06-06 19:03:00,69.0,61.0,-100.00,WSW,241,7.0,12.0,77,0.00,,,0.00,31.000000,,2013-06-07 05:03:00,
2013-06-06 19:12:00,69.0,61.0,-100.00,WSW,241,7.0,12.0,77,0.00,,,0.00,31.000000,,2013-06-07 05:12:00,
2013-06-06 19:22:00,69.0,61.0,-100.00,WSW,241,7.0,12.0,77,0.00,,,0.00,31.000000,,2013-06-07 05:22:00,
2013-06-06 19:32:00,69.0,61.0,-100.00,WSW,241,7.0,12.0,77,0.00,,,0.00,31.000000,,2013-06-07 05:32:00,
2013-06-06 19:52:00,70.0,61.0,-100.00,WNW,299,2.0,7.0,73,0.00,,,0.00,3.000000,,2013-06-07 05:52:00,
2013-06-06 20:02:00,70.0,61.0,-100.00,WNW,299,2.0,7.0,73,0.00,,,0.00,3.000000,,2013-06-07 06:02:00,
2013-06-06 20:12:00,70.0,61.0,-100.00,WNW,299,2.0,7.0,73,0.00,,,0.00,3.000000,,2013-06-07 06:12:00,
2013-06-06 20:22:00,70.0,61.0,-100.00,WNW,299,2.0,7.0,73,0.00,,,0.00,3.000000,,2013-06-07 06:22:00,
2013-06-06 20:32:00,70.0,61.0,-100.00,WNW,299,2.0,7.0,73,0.00,,,0.00,3.000000,,2013-06-07 06:32:00,
2013-06-06 20:52:00,69.0,60.0,-100.00,SW,226,3.0,7.0,73,0.00,,,0.00,0.000000,,2013-06-07 06:52:00,
2013-06-06 21:02:00,69.0,60.0,-100.00,SW,226,3.0,7.0,73,0.00,,,0.00,0.000000,,2013-06-07 07:02:00,
2013-06-06 21:12:00,69.0,60.0,-100.00,SW,226,3.0,7.0,73,0.00,,,0.00,0.000000,,2013-06-07 07:12:00,
2013-06-06 21:22:00,69.0,60.0,-100.00,SW,226,3.0,7.0,73,0.00,,,0.00,0.000000,,2013-06-07 07:22:00,
2013-06-06 21:32:00,69.0,60.0,-100.00,SW,226,3.0,7.0,73,0.00,,,0.00,0.000000,,2013-06-07 07:32:00,
2013-06-06 22:02:00,68.0,60.0,-100.00,SW,225,5.0,7.0,75,0.00,,,0.00,0.000000,,2013-06-07 08:02:00,
2013-06-06 22:12:00,68.0,60.0,-100.00,SW,225,5.0,7.0,75,0.00,,,0.00,0.000000,,2013-06-07 08:12:00,
2013-06-06 22:22:00,68.0,60.0,-100.00,SW,225,5.0,7.0,75,0.00,,,0.00,0.000000,,2013-06-07 08:22:00,
2013-06-06 22:32:00,68.0,60.0,-100.00,SW,225,5.0,7.0,75,0.00,,,0.00,0.000000,,2013-06-07 08:32:00,
2013-06-06 22:52:00,64.0,57.0,-100.00,SSE,150,2.0,4.0,79,0.00,,,0.00,0.000000,,2013-06-07 08:52:00,
2013-06-06 23:02:00,64.0,57.0,-100.00,SSE,150,2.0,4.0,79,0.00,,,0.00,0.000000,,2013-06-07 09:02:00,
2013-06-06 23:12:00,64.0,57.0,-100.00,SSE,150,2.0,4.0,79,0.00,,,0.00,0.000000,,2013-06-07 09:12:00,
2013-06-06 23:22:00,64.0,57.0,-100.00,SSE,150,2.0,4.0,79,0.00,,,0.00,0.000000,,2013-06-07 09:22:00,
2013-06-06 23:32:00,64.0,57.0,-100.00,SSE,150,2.0,4.0,79,0.00,,,0.00,0.000000,,2013-06-07 09:32:00,
2013-06-06 23:53:00,64.0,59.0,-100.00,SE,138,2.0,6.0,84,0.00,,,0.00,0.000000,,2013-06-07 09:53:00,